createdAt,value
2018-04-14T00:00:37.475Z,7.81
2018-04-14T00:03:05.699Z,7.77
2018-04-14T00:05:33.966Z,7.77
2018-04-14T00:08:02.985Z,7.81
2018-04-14T00:10:31.248Z,7.92
2018-04-14T00:13:01.000Z,8.16
2018-04-14T00:15:29.238Z,8.09
2018-04-14T00:17:57.636Z,8.00
2018-04-14T00:20:25.865Z,8.03
2018-04-14T00:22:54.117Z,8.24
2018-04-14T00:25:22.339Z,8.14
2018-04-14T00:27:50.587Z,7.88
2018-04-14T00:30:18.818Z,7.80
2018-04-14T00:32:47.114Z,7.80
2018-04-14T00:35:16.128Z,7.80
2018-04-14T00:37:44.395Z,7.75
2018-04-14T00:40:13.442Z,7.99
2018-04-14T00:42:41.690Z,7.81
2018-04-14T00:45:09.925Z,7.92
2018-04-14T00:47:38.182Z,7.81
2018-04-14T00:50:06.457Z,7.61
2018-04-14T00:52:35.478Z,7.59
2018-04-14T00:55:03.711Z,7.80
2018-04-14T00:57:32.138Z,7.77
2018-04-14T01:00:01.159Z,7.76
2018-04-14T01:02:29.407Z,7.65
2018-04-14T01:04:57.637Z,7.62
2018-04-14T01:07:25.948Z,7.58
2018-04-14T01:09:54.198Z,7.56
2018-04-14T01:12:23.222Z,7.53
2018-04-14T01:14:51.452Z,7.53
2018-04-14T01:17:19.705Z,7.56
2018-04-14T01:19:47.951Z,7.47
2018-04-14T01:22:16.227Z,7.52
2018-04-14T01:24:44.461Z,7.65
2018-04-14T01:27:12.702Z,7.68
2018-04-14T01:29:40.948Z,7.79
2018-04-14T01:32:09.194Z,7.62
2018-04-14T01:34:37.456Z,7.60
2018-04-14T01:37:05.687Z,7.68
2018-04-14T01:39:34.705Z,7.78
2018-04-14T01:42:03.703Z,7.70
2018-04-14T01:44:32.710Z,7.65
2018-04-14T01:47:01.730Z,7.64
2018-04-14T01:49:30.739Z,7.67
2018-04-14T01:51:58.983Z,7.72
2018-04-14T01:54:27.224Z,7.65
2018-04-14T01:56:55.458Z,7.65
2018-04-14T01:59:23.714Z,7.73
2018-04-14T02:01:51.939Z,7.65
2018-04-14T02:04:20.261Z,7.70
2018-04-14T02:06:49.255Z,7.68
2018-04-14T02:09:17.547Z,7.70
2018-04-14T02:11:46.550Z,7.64
2018-04-14T02:14:14.866Z,7.49
2018-04-14T02:16:43.137Z,7.36
2018-04-14T02:19:12.245Z,7.40
2018-04-14T02:21:41.339Z,7.52
2018-04-14T02:24:10.352Z,7.50
2018-04-14T02:26:39.356Z,7.38
2018-04-14T02:29:08.954Z,7.33
2018-04-14T02:31:37.200Z,7.34
2018-04-14T02:34:05.473Z,7.34
2018-04-14T02:36:33.736Z,7.33
2018-04-14T02:39:01.978Z,7.25
2018-04-14T02:41:30.209Z,7.20
2018-04-14T02:43:59.803Z,7.20
2018-04-14T02:46:28.032Z,7.24
2018-04-14T02:48:56.372Z,7.35
2018-04-14T02:51:24.596Z,7.34
2018-04-14T02:53:52.897Z,7.32
2018-04-14T02:56:21.888Z,7.38
2018-04-14T02:58:50.140Z,7.47
2018-04-14T03:01:18.423Z,7.59
2018-04-14T03:03:46.714Z,7.47
2018-04-14T03:06:14.988Z,7.30
2018-04-14T03:08:43.244Z,7.40
2018-04-14T03:11:12.281Z,7.24
2018-04-14T03:13:40.529Z,7.09
2018-04-14T03:16:08.773Z,7.00
2018-04-14T03:18:37.014Z,6.99
2018-04-14T03:21:06.045Z,7.02
2018-04-14T03:23:34.291Z,6.99
2018-04-14T03:26:03.307Z,6.90
2018-04-14T03:28:31.545Z,7.02
2018-04-14T03:30:59.795Z,7.03
2018-04-14T03:33:28.786Z,6.99
2018-04-14T03:35:57.032Z,6.98
2018-04-14T03:38:25.281Z,6.91
2018-04-14T03:40:54.296Z,6.80
2018-04-14T03:43:23.316Z,6.86
2018-04-14T03:45:51.563Z,6.82
2018-04-14T03:48:19.783Z,6.78
2018-04-14T03:50:48.832Z,6.86
2018-04-14T03:53:17.051Z,6.74
2018-04-14T03:55:45.315Z,6.72
2018-04-14T03:58:14.343Z,6.73
2018-04-14T04:00:42.608Z,6.71
2018-04-14T04:03:10.844Z,6.60
2018-04-14T04:05:39.862Z,6.50
2018-04-14T04:08:09.618Z,6.35
2018-04-14T04:10:37.870Z,6.28
2018-04-14T04:13:07.625Z,6.21
2018-04-14T04:15:35.923Z,6.16
2018-04-14T04:18:04.875Z,6.10
2018-04-14T04:20:51.663Z,6.16
2018-04-14T04:23:37.576Z,6.14
2018-04-14T04:26:05.817Z,6.06
2018-04-14T04:28:34.056Z,6.02
2018-04-14T04:31:02.354Z,6.03
2018-04-14T04:33:30.585Z,6.01
2018-04-14T04:35:58.830Z,5.99
2018-04-14T04:38:27.069Z,5.98
2018-04-14T04:40:55.346Z,6.08
2018-04-14T04:43:23.590Z,6.14
2018-04-14T04:45:51.831Z,6.13
2018-04-14T04:48:20.100Z,6.14
2018-04-14T04:50:49.098Z,6.34
2018-04-14T04:53:18.124Z,6.35
2018-04-14T04:55:47.114Z,6.39
2018-04-14T04:58:16.159Z,6.49
2018-04-14T05:00:44.405Z,6.58
2018-04-14T05:03:13.430Z,6.69
2018-04-14T05:05:43.027Z,6.83
2018-04-14T05:08:11.277Z,6.99
2018-04-14T05:10:39.516Z,7.08
2018-04-14T05:13:08.536Z,7.08
2018-04-14T05:15:36.777Z,7.08
2018-04-14T05:18:05.022Z,7.18
2018-04-14T05:20:33.263Z,7.42
2018-04-14T05:23:01.515Z,7.51
2018-04-14T05:25:29.766Z,7.61
2018-04-14T05:27:58.765Z,7.71
2018-04-14T05:30:27.782Z,7.77
2018-04-14T05:32:56.796Z,7.84
2018-04-14T05:35:25.057Z,7.86
2018-04-14T05:37:53.308Z,7.70
2018-04-14T05:40:21.534Z,7.66
2018-04-14T05:42:49.824Z,7.67
2018-04-14T05:45:18.025Z,8.03
2018-04-14T05:47:47.031Z,8.24
2018-04-14T05:50:16.029Z,8.41
2018-04-14T05:52:44.301Z,8.50
2018-04-14T05:55:12.547Z,8.49
2018-04-14T05:57:40.802Z,8.68
2018-04-14T06:00:09.817Z,8.83
2018-04-14T06:02:38.823Z,9.06
2018-04-14T06:05:07.836Z,9.16
2018-04-14T06:07:36.855Z,9.33
2018-04-14T06:10:05.100Z,9.47
2018-04-14T06:12:33.346Z,9.56
2018-04-14T06:15:01.631Z,9.76
2018-04-14T06:17:29.883Z,10.11
2018-04-14T06:19:59.256Z,10.29
2018-04-14T06:22:27.847Z,10.51
2018-04-14T06:24:56.120Z,10.74
2018-04-14T06:27:24.350Z,10.89
2018-04-14T06:29:52.598Z,11.02
2018-04-14T06:32:20.835Z,11.13
2018-04-14T06:34:49.111Z,11.27
2018-04-14T06:37:17.345Z,11.49
2018-04-14T06:39:46.371Z,11.55
2018-04-14T06:42:14.616Z,11.84
2018-04-14T06:44:43.647Z,12.04
2018-04-14T06:47:11.895Z,12.20
2018-04-14T06:49:40.153Z,12.17
2018-04-14T06:52:08.378Z,12.48
2018-04-14T06:54:36.645Z,12.65
2018-04-14T06:57:05.182Z,12.73
2018-04-14T06:59:34.311Z,12.67
2018-04-14T07:02:04.648Z,12.82
2018-04-14T07:04:32.966Z,12.83
2018-04-14T07:07:01.915Z,12.99
2018-04-14T07:09:30.950Z,13.34
2018-04-14T07:11:59.187Z,13.38
2018-04-14T07:14:27.455Z,13.43
2018-04-14T07:16:55.762Z,13.54
2018-04-14T07:19:24.019Z,13.50
2018-04-14T07:21:52.278Z,13.90
2018-04-14T07:24:20.556Z,13.74
2018-04-14T07:26:49.601Z,13.90
2018-04-14T07:29:18.671Z,14.14
2018-04-14T07:31:47.699Z,14.53
2018-04-14T07:34:17.102Z,14.65
2018-04-14T07:36:45.384Z,14.35
2018-04-14T07:39:13.695Z,14.54
2018-04-14T07:41:41.976Z,14.80
2018-04-14T07:44:11.079Z,14.93
2018-04-14T07:46:40.088Z,15.09
2018-04-14T07:49:09.095Z,14.78
2018-04-14T07:51:38.218Z,14.86
2018-04-14T07:54:06.431Z,15.10
2018-04-14T07:56:34.680Z,15.45
2018-04-14T07:59:02.946Z,15.80
2018-04-14T08:01:31.188Z,15.95
2018-04-14T08:03:59.438Z,16.20
2018-04-14T08:06:27.700Z,16.00
2018-04-14T08:08:56.709Z,15.58
2018-04-14T08:11:25.131Z,15.75
2018-04-14T08:13:53.383Z,16.01
2018-04-14T08:16:21.648Z,15.82
2018-04-14T08:18:49.890Z,16.14
2018-04-14T08:21:18.156Z,16.26
2018-04-14T08:23:46.388Z,16.32
2018-04-14T08:26:14.661Z,16.56
2018-04-14T08:28:42.956Z,16.39
2018-04-14T08:31:11.982Z,16.20
2018-04-14T08:33:40.218Z,16.25
2018-04-14T08:36:09.256Z,16.93
2018-04-14T08:38:37.511Z,17.07
2018-04-14T08:41:05.827Z,17.03
2018-04-14T08:43:34.070Z,17.17
2018-04-14T08:46:02.352Z,16.76
2018-04-14T08:48:30.589Z,17.09
2018-04-14T08:50:58.842Z,17.28
2018-04-14T08:53:27.099Z,17.23
2018-04-14T08:55:55.351Z,17.02
2018-04-14T08:58:24.356Z,17.38
2018-04-14T09:00:52.659Z,17.81
2018-04-14T09:03:20.895Z,17.50
2018-04-14T09:05:49.173Z,17.43
2018-04-14T09:08:17.446Z,17.56
2018-04-14T09:10:45.755Z,17.40
2018-04-14T09:13:14.001Z,17.64
2018-04-14T09:15:42.274Z,17.67
2018-04-14T09:18:11.324Z,17.89
2018-04-14T09:20:39.630Z,18.15
2018-04-14T09:23:07.884Z,18.01
2018-04-14T09:25:36.151Z,17.94
2018-04-14T09:28:04.427Z,18.32
2018-04-14T09:30:33.453Z,18.67
2018-04-14T09:33:01.707Z,17.68
2018-04-14T09:35:29.947Z,17.95
2018-04-14T09:37:58.204Z,17.88
2018-04-14T09:40:26.498Z,18.37
2018-04-14T09:42:55.531Z,18.16
2018-04-14T09:45:23.763Z,18.32
2018-04-14T09:47:52.039Z,19.05
2018-04-14T09:50:21.094Z,18.98
2018-04-14T09:52:50.124Z,18.96
2018-04-14T09:55:19.141Z,18.54
2018-04-14T09:57:47.409Z,17.85
2018-04-14T10:00:21.227Z,18.29
2018-04-14T10:02:50.248Z,18.54
2018-04-14T10:05:18.502Z,19.22
2018-04-14T10:07:47.599Z,19.09
2018-04-14T10:10:16.620Z,18.86
2018-04-14T10:12:45.643Z,18.98
2018-04-14T10:15:13.882Z,18.87
2018-04-14T10:17:42.163Z,19.23
2018-04-14T10:20:10.427Z,18.90
2018-04-14T10:22:38.681Z,18.66
2018-04-14T10:25:07.700Z,19.12
2018-04-14T10:27:36.704Z,18.54
2018-04-14T10:30:04.934Z,18.46
2018-04-14T10:32:33.192Z,18.69
2018-04-14T10:35:01.427Z,19.15
2018-04-14T10:37:29.692Z,19.09
2018-04-14T10:39:57.947Z,19.23
2018-04-14T10:42:26.207Z,19.09
2018-04-14T10:44:54.526Z,18.94
2018-04-14T10:47:22.821Z,19.33
2018-04-14T10:49:51.053Z,18.86
2018-04-14T10:52:19.302Z,19.08
2018-04-14T10:54:47.544Z,18.42
2018-04-14T10:57:15.810Z,18.56
2018-04-14T10:59:44.815Z,18.78
2018-04-14T11:02:13.056Z,18.89
2018-04-14T11:04:42.080Z,19.07
2018-04-14T11:07:10.323Z,19.98
2018-04-14T11:09:38.619Z,19.79
2018-04-14T11:12:06.939Z,19.63
2018-04-14T11:14:35.210Z,19.19
2018-04-14T11:17:04.430Z,18.73
2018-04-14T11:19:32.825Z,19.03
2018-04-14T11:22:01.053Z,18.81
2018-04-14T11:24:29.306Z,19.27
2018-04-14T11:26:57.551Z,19.42
2018-04-14T11:29:25.845Z,19.20
2018-04-14T11:31:54.074Z,18.95
2018-04-14T11:34:23.087Z,19.37
2018-04-14T11:36:51.326Z,19.39
2018-04-14T11:39:19.580Z,19.67
2018-04-14T11:41:47.846Z,19.96
2018-04-14T11:44:16.880Z,19.90
2018-04-14T11:46:45.114Z,19.77
2018-04-14T11:49:13.373Z,19.81
2018-04-14T11:51:41.634Z,19.87
2018-04-14T11:54:09.911Z,19.93
2018-04-14T11:56:38.937Z,19.61
2018-04-14T11:59:07.201Z,19.81
2018-04-14T12:01:35.455Z,19.08
2018-04-14T12:04:03.736Z,19.84
2018-04-14T12:06:31.985Z,20.58
2018-04-14T12:09:00.243Z,19.49
2018-04-14T12:11:29.255Z,20.16
2018-04-14T12:13:58.285Z,19.52
2018-04-14T12:16:26.518Z,19.93
2018-04-14T12:18:55.581Z,19.94
2018-04-14T12:21:23.814Z,20.28
2018-04-14T12:23:52.085Z,20.50
2018-04-14T12:26:20.316Z,20.28
2018-04-14T12:28:49.335Z,20.34
2018-04-14T12:31:18.369Z,20.33
2018-04-14T12:33:46.603Z,20.43
2018-04-14T12:36:14.857Z,20.23
2018-04-14T12:38:43.099Z,20.23
2018-04-14T12:41:12.139Z,20.28
2018-04-14T12:43:40.390Z,20.24
2018-04-14T12:46:09.515Z,20.39
2018-04-14T12:48:37.752Z,19.77
2018-04-14T12:51:05.998Z,20.23
2018-04-14T12:53:34.246Z,20.45
2018-04-14T12:56:02.506Z,20.31
2018-04-14T12:58:30.737Z,20.32
2018-04-14T13:00:59.776Z,20.23
2018-04-14T13:03:28.017Z,20.00
2018-04-14T13:05:56.282Z,20.23
2018-04-14T13:08:24.557Z,20.27
2018-04-14T13:10:53.103Z,19.85
2018-04-14T13:13:22.112Z,20.08
2018-04-14T13:15:51.136Z,20.35
2018-04-14T13:18:19.399Z,20.74
2018-04-14T13:20:47.686Z,20.58
2018-04-14T13:23:15.934Z,20.58
2018-04-14T13:25:44.183Z,20.47
2018-04-14T13:28:13.582Z,20.34
2018-04-14T13:30:41.842Z,20.56
2018-04-14T13:33:10.089Z,21.11
2018-04-14T13:35:38.338Z,21.24
2018-04-14T13:38:06.613Z,20.80
2018-04-14T13:40:34.879Z,20.60
2018-04-14T13:43:03.122Z,20.51
2018-04-14T13:45:32.139Z,20.55
2018-04-14T13:48:00.420Z,21.23
2018-04-14T13:50:29.447Z,21.20
2018-04-14T13:52:57.734Z,21.35
2018-04-14T13:55:26.044Z,20.60
2018-04-14T13:57:54.294Z,20.79
2018-04-14T14:00:23.294Z,21.63
2018-04-14T14:02:52.323Z,21.09
2018-04-14T14:05:20.557Z,20.99
2018-04-14T14:07:48.987Z,20.59
2018-04-14T14:10:18.009Z,20.89
2018-04-14T14:12:46.270Z,21.08
2018-04-14T14:15:15.301Z,21.28
2018-04-14T14:17:43.570Z,21.16
2018-04-14T14:20:11.839Z,21.15
2018-04-14T14:22:40.115Z,20.60
2018-04-14T14:25:08.369Z,20.33
2018-04-14T14:27:36.621Z,20.70
2018-04-14T14:30:05.640Z,20.36
2018-04-14T14:32:34.669Z,21.10
2018-04-14T14:35:02.907Z,21.09
2018-04-14T14:37:31.156Z,21.17
2018-04-14T14:40:00.327Z,21.73
2018-04-14T14:42:29.403Z,21.68
2018-04-14T14:44:57.631Z,20.87
2018-04-14T14:47:26.663Z,20.69
2018-04-14T14:50:01.104Z,20.69
2018-04-14T14:52:29.412Z,21.41
2018-04-14T14:54:57.627Z,21.33
2018-04-14T14:57:25.894Z,21.03
2018-04-14T14:59:54.135Z,20.65
2018-04-14T15:02:22.382Z,21.27
2018-04-14T15:04:50.707Z,20.98
2018-04-14T15:07:19.715Z,20.79
2018-04-14T15:09:48.757Z,20.34
2018-04-14T15:12:17.761Z,20.09
2018-04-14T15:14:46.026Z,20.46
2018-04-14T15:17:14.321Z,20.54
2018-04-14T15:19:42.575Z,20.95
2018-04-14T15:22:10.835Z,20.93
2018-04-14T15:24:39.229Z,20.84
2018-04-14T15:27:07.841Z,20.92
2018-04-14T15:29:36.109Z,21.11
2018-04-14T15:32:04.359Z,21.33
2018-04-14T15:34:32.688Z,21.62
2018-04-14T15:37:00.920Z,21.41
2018-04-14T15:39:29.951Z,21.33
2018-04-14T15:41:58.197Z,20.96
2018-04-14T15:44:26.458Z,20.90
2018-04-14T15:46:54.735Z,20.89
2018-04-14T15:49:23.718Z,21.07
2018-04-14T15:51:51.948Z,20.87
2018-04-14T15:54:20.961Z,20.52
2018-04-14T15:56:49.207Z,20.69
2018-04-14T15:59:17.459Z,20.58
2018-04-14T16:01:45.703Z,20.52
2018-04-14T16:04:13.971Z,20.41
2018-04-14T16:06:42.981Z,20.42
2018-04-14T16:09:11.239Z,20.23
2018-04-14T16:11:40.258Z,20.08
2018-04-14T16:14:08.512Z,19.93
2018-04-14T16:16:36.767Z,19.76
2018-04-14T16:19:05.020Z,19.84
2018-04-14T16:21:34.033Z,19.70
2018-04-14T16:24:03.047Z,19.71
2018-04-14T16:26:31.286Z,19.70
2018-04-14T16:28:59.552Z,19.54
2018-04-14T16:31:27.791Z,19.52
2018-04-14T16:33:56.837Z,19.52
2018-04-14T16:36:25.091Z,19.45
2018-04-14T16:38:54.126Z,19.40
2018-04-14T16:41:22.380Z,19.31
2018-04-14T16:43:51.411Z,19.31
2018-04-14T16:46:19.673Z,19.10
2018-04-14T16:48:47.915Z,19.25
2018-04-14T16:51:16.183Z,19.08
2018-04-14T16:53:45.217Z,19.09
2018-04-14T16:56:13.502Z,19.01
2018-04-14T16:58:41.834Z,18.88
2018-04-14T17:01:10.119Z,18.83
2018-04-14T17:03:38.387Z,18.83
2018-04-14T17:06:08.147Z,18.84
2018-04-14T17:08:37.187Z,18.84
2018-04-14T17:11:05.474Z,18.80
2018-04-14T17:13:34.223Z,18.75
2018-04-14T17:16:02.490Z,18.85
2018-04-14T17:18:30.735Z,19.24
2018-04-14T17:20:58.994Z,20.02
2018-04-14T17:23:28.056Z,20.67
2018-04-14T17:25:56.307Z,20.70
2018-04-14T17:28:25.319Z,20.78
2018-04-14T17:30:53.571Z,20.39
2018-04-14T17:33:21.819Z,19.85
2018-04-14T17:35:50.082Z,19.48
2018-04-14T17:38:19.103Z,19.28
2018-04-14T17:40:48.123Z,18.98
2018-04-14T17:43:16.378Z,18.76
2018-04-14T17:45:45.459Z,18.67
2018-04-14T17:48:13.702Z,18.61
2018-04-14T17:50:41.955Z,18.46
2018-04-14T17:53:11.704Z,18.27
2018-04-14T17:55:40.005Z,18.08
2018-04-14T17:58:08.253Z,17.90
2018-04-14T18:00:36.508Z,17.64
2018-04-14T18:03:04.756Z,17.42
2018-04-14T18:05:33.027Z,17.27
2018-04-14T18:08:02.062Z,17.06
2018-04-14T18:10:30.311Z,16.93
2018-04-14T18:12:58.665Z,16.90
2018-04-14T18:15:26.895Z,16.76
2018-04-14T18:17:55.917Z,16.66
2018-04-14T18:20:24.950Z,16.47
2018-04-14T18:22:53.214Z,16.39
2018-04-14T18:25:22.225Z,16.23
2018-04-14T18:27:50.484Z,16.10
2018-04-14T18:30:19.490Z,16.03
2018-04-14T18:32:47.755Z,15.90
2018-04-14T18:35:16.007Z,15.80
2018-04-14T18:37:44.262Z,15.63
2018-04-14T18:40:12.509Z,15.47
2018-04-14T18:42:40.769Z,15.35
2018-04-14T18:45:09.049Z,15.29
2018-04-14T18:47:38.061Z,15.14
2018-04-14T18:50:06.379Z,14.98
2018-04-14T18:52:34.604Z,14.96
2018-04-14T18:55:02.849Z,14.81
2018-04-14T18:57:31.127Z,14.67
2018-04-14T18:59:59.354Z,14.56
2018-04-14T19:02:27.747Z,14.51
2018-04-14T19:04:55.966Z,14.39
2018-04-14T19:07:24.976Z,14.31
2018-04-14T19:09:53.999Z,14.17
2018-04-14T19:12:23.035Z,14.06
2018-04-14T19:14:51.307Z,13.96
2018-04-14T19:17:19.591Z,13.94
2018-04-14T19:19:47.890Z,13.80
2018-04-14T19:22:16.188Z,13.74
2018-04-14T19:24:44.448Z,13.70
2018-04-14T19:27:13.452Z,13.67
2018-04-14T19:29:41.704Z,13.60
2018-04-14T19:32:10.041Z,13.53
2018-04-14T19:34:38.276Z,13.44
2018-04-14T19:37:06.524Z,13.46
2018-04-14T19:39:34.781Z,13.36
2018-04-14T19:42:03.798Z,13.41
2018-04-14T19:44:32.863Z,13.30
2018-04-14T19:47:01.101Z,13.27
2018-04-14T19:49:29.394Z,13.19
2018-04-14T19:51:58.456Z,13.13
2018-04-14T19:54:26.727Z,13.06
2018-04-14T19:56:54.973Z,13.09
2018-04-14T19:59:23.234Z,13.01
2018-04-14T20:01:51.480Z,12.94
2018-04-14T20:04:19.767Z,12.83
2018-04-14T20:06:48.019Z,12.75
2018-04-14T20:09:17.051Z,12.76
2018-04-14T20:11:45.303Z,12.62
2018-04-14T20:14:13.586Z,12.61
2018-04-14T20:16:41.844Z,12.63
2018-04-14T20:19:10.100Z,12.61
2018-04-14T20:21:38.366Z,12.64
2018-04-14T20:24:07.376Z,12.61
2018-04-14T20:26:36.401Z,12.65
2018-04-14T20:29:04.667Z,12.66
2018-04-14T20:31:33.675Z,12.56
2018-04-14T20:34:02.730Z,12.51
2018-04-14T20:36:30.993Z,12.45
2018-04-14T20:38:59.316Z,12.46
2018-04-14T20:41:27.563Z,12.39
2018-04-14T20:43:55.823Z,12.33
2018-04-14T20:46:24.063Z,12.35
2018-04-14T20:48:52.324Z,12.37
2018-04-14T20:51:21.324Z,12.34
2018-04-14T20:53:51.109Z,12.29
2018-04-14T20:56:19.411Z,12.22
2018-04-14T20:58:47.681Z,12.15
2018-04-14T21:01:15.921Z,12.05
2018-04-14T21:03:44.195Z,12.07
2018-04-14T21:06:13.231Z,11.90
2018-04-14T21:08:41.482Z,11.82
2018-04-14T21:11:09.759Z,11.71
2018-04-14T21:13:38.021Z,11.69
2018-04-14T21:16:06.286Z,11.78
2018-04-14T21:18:34.555Z,11.80
2018-04-14T21:21:03.580Z,11.66
2018-04-14T21:23:31.830Z,11.60
2018-04-14T21:26:00.091Z,11.57
2018-04-14T21:28:28.333Z,11.52
2018-04-14T21:30:57.372Z,11.53
2018-04-14T21:33:25.617Z,11.41
2018-04-14T21:35:54.645Z,11.32
2018-04-14T21:38:22.893Z,11.30
2018-04-14T21:40:51.139Z,11.28
2018-04-14T21:43:19.418Z,11.27
2018-04-14T21:45:47.674Z,11.19
2018-04-14T21:48:16.691Z,11.13
2018-04-14T21:50:45.695Z,11.07
2018-04-14T21:53:14.708Z,11.09
2018-04-14T21:55:43.773Z,11.09
2018-04-14T21:58:12.021Z,11.12
2018-04-14T22:00:40.296Z,11.02
2018-04-14T22:03:08.577Z,11.08
2018-04-14T22:05:37.613Z,11.08
2018-04-14T22:08:05.874Z,10.98
2018-04-14T22:10:34.899Z,10.97
2018-04-14T22:13:03.135Z,10.94
2018-04-14T22:15:31.392Z,10.84
2018-04-14T22:17:59.644Z,10.82
2018-04-14T22:20:28.667Z,10.77
2018-04-14T22:22:56.944Z,10.70
2018-04-14T22:25:25.209Z,10.64
2018-04-14T22:27:53.479Z,10.51
2018-04-14T22:30:21.759Z,10.46
2018-04-14T22:32:50.050Z,10.44
2018-04-14T22:35:18.313Z,10.48
2018-04-14T22:37:46.610Z,10.63
2018-04-14T22:40:14.885Z,10.55
2018-04-14T22:42:43.137Z,10.41
2018-04-14T22:45:11.375Z,10.35
2018-04-14T22:47:39.626Z,10.40
2018-04-14T22:50:08.624Z,10.26
2018-04-14T22:52:36.902Z,10.28
2018-04-14T22:55:05.144Z,10.27
2018-04-14T22:57:33.395Z,10.17
2018-04-14T23:00:02.415Z,10.15
2018-04-14T23:02:31.440Z,10.16
2018-04-14T23:04:59.678Z,10.07
2018-04-14T23:07:27.930Z,10.01
2018-04-14T23:09:56.171Z,9.91
2018-04-14T23:12:24.447Z,9.91
2018-04-14T23:14:52.665Z,9.97
2018-04-14T23:17:21.672Z,9.89
2018-04-14T23:19:49.904Z,9.89
2018-04-14T23:22:18.175Z,9.87
2018-04-14T23:24:46.435Z,9.81
2018-04-14T23:27:15.452Z,9.80
2018-04-14T23:29:44.496Z,9.81
2018-04-14T23:32:12.748Z,9.77
2018-04-14T23:34:40.975Z,9.71
2018-04-14T23:37:09.240Z,9.64
2018-04-14T23:39:37.475Z,9.65
2018-04-14T23:42:05.772Z,9.61
2018-04-14T23:44:34.782Z,9.70
2018-04-14T23:47:03.795Z,9.60
2018-04-14T23:49:32.818Z,9.51
2018-04-14T23:52:01.063Z,9.50
2018-04-14T23:54:29.307Z,9.45
2018-04-14T23:56:57.554Z,9.41
2018-04-14T23:59:26.567Z,9.37
